Time;durP1;ratioP1;P1;durP2;ratioP2;P2;SDS_P1;SDS_P2;PMS_P1;PMS_P2;Temp;Humidity;BMP_temperature;BMP_pressure;BME280_temperature;BME280_humidity;BME280_pressure;Samples;Min_cycle;Max_cycle;Signal;HPM_P1;HPM_P2
2022/06/03 00:01:08;;;;;;;;;;;8.80;99.90;;;;;;4969203;28;19973;-70
2022/06/03 00:03:34;;;;;;;;;;;9.00;99.90;;;;;;4965748;28;20013;-71
2022/06/03 00:06:02;;;;;;;;;;;8.90;99.90;;;;;;4970205;28;20008;-70
2022/06/03 00:08:28;;;;;;;;;;;8.90;99.90;;;;;;4969947;28;19977;-70
2022/06/03 00:10:53;;;;;;;;;;;8.80;99.90;;;;;;4968367;28;19976;-70
2022/06/03 00:13:19;;;;;;;;;;;8.80;99.90;;;;;;4971046;28;19940;-70
2022/06/03 00:15:48;;;;;;;;;;;8.70;99.90;;;;;;4969008;28;20078;-70
2022/06/03 00:18:13;;;;;;;;;;;8.70;99.90;;;;;;4969686;28;20371;-70
2022/06/03 00:20:57;;;;;;;;;;;8.70;99.90;;;;;;4968366;28;19932;-70
2022/06/03 00:23:41;;;;;;;;;;;8.60;99.90;;;;;;4968979;28;19934;-70
2022/06/03 00:26:25;;;;;;;;;;;8.60;99.90;;;;;;4968761;28;19933;-70
2022/06/03 00:29:01;;;;;;;;;;;8.50;99.90;;;;;;4968618;28;19922;-70
2022/06/03 00:31:26;;;;;;;;;;;8.50;99.90;;;;;;5000357;28;19933;-70
2022/06/03 00:34:01;;;;;;;;;;;8.50;99.90;;;;;;4969802;28;20189;-70
2022/06/03 00:36:30;;;;;;;;;;;8.40;99.90;;;;;;4984704;28;19937;-69
2022/06/03 00:38:58;;;;;;;;;;;8.40;99.90;;;;;;4967428;28;20512;-70
2022/06/03 00:41:40;;;;;;;;;;;8.40;99.90;;;;;;4984078;28;19922;-70
2022/06/03 00:44:16;;;;;;;;;;;8.30;99.90;;;;;;4968550;28;19922;-70
2022/06/03 00:47:01;;;;;;;;;;;8.30;99.90;;;;;;4967919;28;19976;-72
2022/06/03 00:49:38;;;;;;;;;;;8.20;99.90;;;;;;4968652;28;20371;-69
2022/06/03 00:52:21;;;;;;;;;;;8.20;99.90;;;;;;4968164;28;20380;-70
2022/06/03 00:54:54;;;;;;;;;;;8.20;99.90;;;;;;4965651;28;19981;-70
2022/06/03 00:57:26;;;;;;;;;;;8.30;99.90;;;;;;4966853;28;19926;-70
2022/06/03 00:59:58;;;;;;;;;;;8.20;99.90;;;;;;4984031;28;19922;-70
2022/06/03 01:02:23;;;;;;;;;;;8.20;99.90;;;;;;4970164;28;19992;-69
2022/06/03 01:04:58;;;;;;;;;;;8.10;99.90;;;;;;4984334;28;19926;-70
2022/06/03 01:07:27;;;;;;;;;;;8.00;99.90;;;;;;4983278;28;20532;-70
2022/06/03 01:10:12;;;;;;;;;;;8.10;99.90;;;;;;4967676;28;20961;-69
2022/06/03 01:12:54;;;;;;;;;;;8.10;99.90;;;;;;4969050;28;19929;-70
2022/06/03 01:15:32;;;;;;;;;;;8.10;99.90;;;;;;4967805;28;20369;-70
2022/06/03 01:18:16;;;;;;;;;;;8.10;99.90;;;;;;4970209;28;19933;-70
2022/06/03 01:20:54;;;;;;;;;;;8.00;99.90;;;;;;4966647;28;19922;-70
2022/06/03 01:23:30;;;;;;;;;;;8.00;99.90;;;;;;4979888;28;19930;-70
2022/06/03 01:26:14;;;;;;;;;;;7.90;99.90;;;;;;4964908;28;19934;-70
2022/06/03 01:28:43;;;;;;;;;;;7.90;99.90;;;;;;4967756;28;19968;-70
2022/06/03 01:31:11;;;;;;;;;;;7.90;99.90;;;;;;4981685;28;20310;-70
2022/06/03 01:33:44;;;;;;;;;;;7.90;99.90;;;;;;4966867;28;19997;-70
2022/06/03 01:36:28;;;;;;;;;;;7.90;99.90;;;;;;4966797;28;19977;-70
2022/06/03 01:39:12;;;;;;;;;;;7.90;99.90;;;;;;4966297;28;19922;-70
2022/06/03 01:41:44;;;;;;;;;;;7.90;99.90;;;;;;4967234;28;19926;-70
2022/06/03 01:44:10;;;;;;;;;;;7.80;99.90;;;;;;4967876;28;19926;-70
2022/06/03 01:46:43;;;;;;;;;;;7.80;99.90;;;;;;4966999;28;20376;-70
2022/06/03 01:49:23;;;;;;;;;;;7.80;99.90;;;;;;4950777;28;19973;-70
2022/06/03 01:52:02;;;;;;;;;;;7.80;99.90;;;;;;4966534;28;20391;-70
2022/06/03 01:54:47;;;;;;;;;;;7.70;99.90;;;;;;4983600;28;20291;-70
2022/06/03 01:57:12;;;;;;;;;;;7.80;99.90;;;;;;4967676;28;19926;-70
2022/06/03 01:59:57;;;;;;;;;;;7.80;99.90;;;;;;4967489;28;19929;-70
2022/06/03 02:02:41;;;;;;;;;;;7.80;99.90;;;;;;4963985;28;20074;-70
2022/06/03 02:05:09;;;;;;;;;;;7.70;99.90;;;;;;4967763;28;19929;-70
2022/06/03 02:07:39;;;;;;;;;;;7.70;99.90;;;;;;4967410;28;20004;-70
2022/06/03 02:10:24;;;;;;;;;;;7.70;99.90;;;;;;4982848;28;19930;-70
2022/06/03 02:12:52;;;;;;;;;;;7.70;99.90;;;;;;4947929;28;19973;-70
2022/06/03 02:15:38;;;;;;;;;;;7.70;99.90;;;;;;4966917;28;20006;-70
2022/06/03 02:18:08;;;;;;;;;;;7.70;99.90;;;;;;4955324;28;19921;-70
2022/06/03 02:20:52;;;;;;;;;;;7.70;99.90;;;;;;4963033;28;20037;-70
2022/06/03 02:23:32;;;;;;;;;;;7.60;99.90;;;;;;4962059;28;19985;-70
2022/06/03 02:26:17;;;;;;;;;;;7.60;99.90;;;;;;4963195;28;19969;-70
2022/06/03 02:31:56;;;;;;;;;;;7.60;99.90;;;;;;4990014;28;19992;-70
2022/06/03 02:34:24;;;;;;;;;;;7.50;99.90;;;;;;4964288;28;20020;-70
2022/06/03 02:36:50;;;;;;;;;;;7.50;99.90;;;;;;4961750;28;19926;-70
2022/06/03 02:39:28;;;;;;;;;;;7.50;99.90;;;;;;4978698;28;20637;-70
2022/06/03 02:42:09;;;;;;;;;;;7.50;99.90;;;;;;4975359;28;19926;-70
2022/06/03 02:44:54;;;;;;;;;;;7.50;99.90;;;;;;4964075;28;19926;-70
2022/06/03 02:47:22;;;;;;;;;;;7.50;99.90;;;;;;4966195;28;19933;-70
2022/06/03 02:50:09;;;;;;;;;;;7.40;99.90;;;;;;4982532;28;19926;-70
2022/06/03 02:52:41;;;;;;;;;;;7.40;99.90;;;;;;4984292;28;20017;-70
2022/06/03 02:55:12;;;;;;;;;;;7.40;99.90;;;;;;4967093;28;19922;-70
2022/06/03 02:58:01;;;;;;;;;;;7.40;99.90;;;;;;4966599;28;19933;-70
2022/06/03 03:00:31;;;;;;;;;;;7.40;99.90;;;;;;4956098;28;19928;-71
2022/06/03 03:03:17;;;;;;;;;;;7.40;99.90;;;;;;4964345;28;19921;-71
2022/06/03 03:06:02;;;;;;;;;;;7.40;99.90;;;;;;4980420;28;19930;-71
2022/06/03 03:08:33;;;;;;;;;;;7.40;99.90;;;;;;4965654;28;19926;-70
2022/06/03 03:11:08;;;;;;;;;;;7.50;99.90;;;;;;4965562;28;20000;-70
2022/06/03 03:13:57;;;;;;;;;;;7.50;99.90;;;;;;4965881;28;19973;-71
2022/06/03 03:16:34;;;;;;;;;;;7.50;99.90;;;;;;4966892;28;19926;-71
2022/06/03 03:19:12;;;;;;;;;;;7.60;99.90;;;;;;4967599;28;20395;-70
2022/06/03 03:21:56;;;;;;;;;;;7.60;99.90;;;;;;4985779;28;20303;-71
2022/06/03 03:24:28;;;;;;;;;;;7.70;99.90;;;;;;4968988;28;20377;-70
2022/06/03 03:27:12;;;;;;;;;;;7.70;99.90;;;;;;4968875;28;19929;-70
2022/06/03 03:29:42;;;;;;;;;;;7.70;99.90;;;;;;4958963;28;19937;-71
2022/06/03 03:32:17;;;;;;;;;;;7.70;99.90;;;;;;4981426;28;19925;-70
2022/06/03 03:35:02;;;;;;;;;;;7.80;99.90;;;;;;4970549;28;19937;-70
2022/06/03 03:37:37;;;;;;;;;;;7.80;99.90;;;;;;4969822;28;20468;-70
2022/06/03 03:40:05;;;;;;;;;;;7.80;99.90;;;;;;4966223;28;19930;-71
2022/06/03 03:42:50;;;;;;;;;;;7.80;99.90;;;;;;4985069;28;19922;-71
2022/06/03 03:45:34;;;;;;;;;;;7.90;99.90;;;;;;4970650;28;19922;-71
2022/06/03 03:48:18;;;;;;;;;;;8.00;99.90;;;;;;4969710;28;19985;-70
2022/06/03 03:51:02;;;;;;;;;;;8.10;99.90;;;;;;4983920;28;20235;-71
2022/06/03 03:53:47;;;;;;;;;;;8.20;99.90;;;;;;4969421;28;19926;-71
2022/06/03 03:56:31;;;;;;;;;;;8.30;99.90;;;;;;4969732;28;19937;-71
2022/06/03 03:59:15;;;;;;;;;;;8.40;99.90;;;;;;4969828;28;19926;-71
2022/06/03 04:01:56;;;;;;;;;;;8.60;99.90;;;;;;4968560;28;20249;-71
2022/06/03 04:04:35;;;;;;;;;;;8.60;99.90;;;;;;4954095;28;19980;-71
2022/06/03 04:07:19;;;;;;;;;;;8.70;99.90;;;;;;4967508;28;19930;-71
2022/06/03 04:10:06;;;;;;;;;;;8.80;99.90;;;;;;4969461;28;19948;-71
2022/06/03 04:12:51;;;;;;;;;;;8.90;99.90;;;;;;4969512;28;20291;-70
2022/06/03 04:15:35;;;;;;;;;;;9.00;99.90;;;;;;4969123;28;19926;-71
2022/06/03 04:18:20;;;;;;;;;;;9.20;99.90;;;;;;4967619;28;19992;-71
2022/06/03 04:21:11;;;;;;;;;;;9.30;99.90;;;;;;4969968;28;20299;-70
2022/06/03 04:23:53;;;;;;;;;;;9.40;99.90;;;;;;4969692;28;19937;-70
2022/06/03 04:26:37;;;;;;;;;;;9.50;99.90;;;;;;4968315;28;20008;-70
2022/06/03 04:29:03;;;;;;;;;;;9.60;99.90;;;;;;4966854;28;19926;-70
2022/06/03 04:31:38;;;;;;;;;;;9.90;99.90;;;;;;4968263;28;19973;-70
2022/06/03 04:34:03;;;;;;;;;;;11.00;99.90;;;;;;4951359;28;19922;-70
2022/06/03 04:36:38;;;;;;;;;;;12.40;99.90;;;;;;4983431;28;20450;-71
2022/06/03 04:39:04;;;;;;;;;;;13.60;99.90;;;;;;4969620;28;19972;-70
2022/06/03 04:41:56;;;;;;;;;;;14.70;99.90;;;;;;4968658;28;19977;-70
2022/06/03 04:44:30;;;;;;;;;;;15.60;99.90;;;;;;4968707;28;19922;-71
2022/06/03 04:47:14;;;;;;;;;;;16.70;99.90;;;;;;4983643;28;19932;-71
2022/06/03 04:49:58;;;;;;;;;;;17.40;99.90;;;;;;4968595;28;20264;-71
2022/06/03 04:52:27;;;;;;;;;;;18.00;99.90;;;;;;4968034;28;19933;-71
2022/06/03 04:54:58;;;;;;;;;;;18.80;99.90;;;;;;4969435;28;20008;-72
2022/06/03 04:57:27;;;;;;;;;;;19.40;99.90;;;;;;4983737;28;19926;-71
2022/06/03 05:00:13;;;;;;;;;;;19.90;99.90;;;;;;4968284;28;19926;-71
2022/06/03 05:02:56;;;;;;;;;;;20.40;99.90;;;;;;4980772;28;19974;-71
2022/06/03 05:05:41;;;;;;;;;;;21.00;99.90;;;;;;4970275;28;19922;-70
2022/06/03 05:08:38;;;;;;;;;;;21.60;99.90;;;;;;4970866;28;20298;-70
2022/06/03 05:11:22;;;;;;;;;;;22.10;99.90;;;;;;4975061;28;19922;-71
2022/06/03 05:13:51;;;;;;;;;;;22.70;99.90;;;;;;4969811;28;19933;-70
2022/06/03 05:16:17;;;;;;;;;;;23.10;99.90;;;;;;4981153;28;19922;-71
2022/06/03 05:18:52;;;;;;;;;;;23.50;99.90;;;;;;4964808;28;19926;-71
2022/06/03 05:21:33;;;;;;;;;;;23.90;99.90;;;;;;4956801;28;20452;-70
2022/06/03 05:24:13;;;;;;;;;;;23.80;99.90;;;;;;4966594;28;20294;-71
2022/06/03 05:26:48;;;;;;;;;;;22.30;99.90;;;;;;4979815;28;20016;-70
2022/06/03 05:29:16;;;;;;;;;;;20.90;99.90;;;;;;4963526;28;19977;-71
2022/06/03 05:31:51;;;;;;;;;;;19.50;99.90;;;;;;4964777;28;20156;-70
2022/06/03 05:34:20;;;;;;;;;;;18.40;99.90;;;;;;4964745;28;19936;-71
2022/06/03 05:36:51;;;;;;;;;;;17.40;99.90;;;;;;4963242;28;20140;-71
2022/06/03 05:39:49;;;;;;;;;;;16.60;99.90;;;;;;4965759;28;19933;-70
2022/06/03 05:42:44;;;;;;;;;;;15.90;99.90;;;;;;4962638;28;20466;-70
2022/06/03 05:45:34;;;;;;;;;;;15.20;99.90;;;;;;4950548;28;19926;-70
2022/06/03 05:48:20;;;;;;;;;;;14.80;99.90;;;;;;4965463;28;19950;-70
2022/06/03 05:50:58;;;;;;;;;;;14.40;99.90;;;;;;4962253;28;20060;-70
2022/06/03 05:53:44;;;;;;;;;;;14.00;99.90;;;;;;4946299;28;19929;-70
2022/06/03 05:56:25;;;;;;;;;;;14.00;99.90;;;;;;4961946;28;19925;-70
2022/06/03 05:58:55;;;;;;;;;;;14.30;99.90;;;;;;4972413;28;19930;-70
2022/06/03 06:01:33;;;;;;;;;;;15.10;99.90;;;;;;4974611;28;19930;-70
2022/06/03 06:04:20;;;;;;;;;;;14.80;99.90;;;;;;4971985;28;19922;-70
2022/06/03 06:06:52;;;;;;;;;;;14.50;99.90;;;;;;4976101;28;19930;-70
2022/06/03 06:09:33;;;;;;;;;;;14.20;99.90;;;;;;4975189;28;19926;-70
2022/06/03 06:12:02;;;;;;;;;;;14.00;99.90;;;;;;4963256;28;19922;-70
2022/06/03 06:14:34;;;;;;;;;;;13.80;99.90;;;;;;4963314;28;20029;-70
2022/06/03 06:17:19;;;;;;;;;;;13.90;99.90;;;;;;4964339;28;20446;-70
2022/06/03 06:19:48;;;;;;;;;;;15.00;99.90;;;;;;4964849;28;19933;-70
2022/06/03 06:22:30;;;;;;;;;;;15.20;99.90;;;;;;4963635;28;19922;-70
2022/06/03 06:24:56;;;;;;;;;;;14.80;99.90;;;;;;4949107;28;20339;-69
2022/06/03 06:27:50;;;;;;;;;;;14.50;99.90;;;;;;4964815;28;19937;-71
2022/06/03 06:30:17;;;;;;;;;;;14.40;99.90;;;;;;4963792;28;20372;-70
2022/06/03 06:33:02;;;;;;;;;;;14.40;99.90;;;;;;4963987;28;19930;-69
2022/06/03 06:35:27;;;;;;;;;;;14.20;99.90;;;;;;4965442;28;20371;-70
2022/06/03 06:38:11;;;;;;;;;;;14.20;99.90;;;;;;4962028;28;20015;-70
2022/06/03 06:40:37;;;;;;;;;;;14.10;99.90;;;;;;4965866;28;19937;-70
2022/06/03 06:43:03;;;;;;;;;;;14.20;99.90;;;;;;4964741;28;20298;-70
2022/06/03 06:45:40;;;;;;;;;;;14.10;99.90;;;;;;4964931;28;19928;-70
2022/06/03 06:48:45;;;;;;;;;;;14.20;99.90;;;;;;4965100;28;20334;-70
2022/06/03 06:51:32;;;;;;;;;;;14.30;99.90;;;;;;4947703;28;19922;-70
2022/06/03 06:54:05;;;;;;;;;;;14.30;99.90;;;;;;4952257;28;19930;-70
2022/06/03 06:56:39;;;;;;;;;;;14.40;99.90;;;;;;4969191;28;19929;-70
2022/06/03 06:59:10;;;;;;;;;;;14.40;99.90;;;;;;4967430;28;19926;-70
2022/06/03 07:01:40;;;;;;;;;;;14.50;99.90;;;;;;4966954;28;19937;-71
2022/06/03 07:04:13;;;;;;;;;;;14.50;99.90;;;;;;4969791;28;20374;-70
2022/06/03 07:06:43;;;;;;;;;;;14.60;99.90;;;;;;4967730;28;19968;-70
2022/06/03 07:09:11;;;;;;;;;;;14.70;99.90;;;;;;4968959;28;19942;-71
2022/06/03 07:11:46;;;;;;;;;;;14.90;99.90;;;;;;4967312;28;20343;-71
2022/06/03 07:14:14;;;;;;;;;;;15.00;99.90;;;;;;4968368;28;20024;-71
2022/06/03 07:19:48;;;;;;;;;;;15.50;99.90;;;;;;4965881;28;19926;-72
2022/06/03 07:22:14;;;;;;;;;;;16.10;99.90;;;;;;4965434;28;21456;-71
2022/06/03 07:24:48;;;;;;;;;;;16.90;99.90;;;;;;4967035;28;19926;-72
2022/06/03 07:27:36;;;;;;;;;;;17.30;99.90;;;;;;4967423;28;20668;-72
2022/06/03 07:30:05;;;;;;;;;;;17.40;99.90;;;;;;4964883;28;19926;-71
2022/06/03 07:32:40;;;;;;;;;;;17.50;99.90;;;;;;4949207;28;19930;-71
2022/06/03 07:35:24;;;;;;;;;;;17.70;99.90;;;;;;4966499;28;19937;-71
2022/06/03 07:38:00;;;;;;;;;;;17.80;99.90;;;;;;4967049;28;19932;-70
2022/06/03 07:40:38;;;;;;;;;;;18.10;99.90;;;;;;4966675;28;20394;-70
2022/06/03 07:43:30;;;;;;;;;;;18.40;99.90;;;;;;4962617;28;19933;-70
2022/06/03 07:45:57;;;;;;;;;;;18.70;99.90;;;;;;4965913;28;19996;-70
2022/06/03 07:48:25;;;;;;;;;;;19.00;99.90;;;;;;4965584;28;19926;-70
2022/06/03 07:50:54;;;;;;;;;;;19.10;99.90;;;;;;4964112;28;19945;-71
2022/06/03 07:53:27;;;;;;;;;;;19.30;99.90;;;;;;4969883;28;19929;-70
2022/06/03 07:55:55;;;;;;;;;;;19.40;99.90;;;;;;4985516;28;21542;-70
2022/06/03 07:58:22;;;;;;;;;;;19.60;99.90;;;;;;4966418;28;20314;-71
2022/06/03 08:00:47;;;;;;;;;;;19.70;99.90;;;;;;4967128;28;20069;-71
2022/06/03 08:03:16;;;;;;;;;;;19.80;99.70;;;;;;4984762;28;20016;-69
2022/06/03 08:05:44;;;;;;;;;;;19.80;97.90;;;;;;4969054;28;19965;-70
2022/06/03 08:10:58;;;;;;;;;;;20.10;99.90;;;;;;4969656;28;19948;-71
2022/06/03 08:13:44;;;;;;;;;;;20.40;99.90;;;;;;4970051;28;20347;-71
2022/06/03 08:16:23;;;;;;;;;;;20.50;99.70;;;;;;4966550;28;20403;-70
2022/06/03 08:18:49;;;;;;;;;;;20.60;99.90;;;;;;4952458;28;19930;-70
2022/06/03 08:21:46;;;;;;;;;;;20.70;98.30;;;;;;4970878;28;19933;-70
2022/06/03 08:24:14;;;;;;;;;;;20.70;96.80;;;;;;4974783;28;19922;-70
2022/06/03 08:26:42;;;;;;;;;;;20.80;95.30;;;;;;4970814;28;19926;-70
2022/06/03 08:29:11;;;;;;;;;;;20.90;97.50;;;;;;4972435;28;20335;-69
2022/06/03 08:31:37;;;;;;;;;;;21.10;93.10;;;;;;4970374;28;19922;-70
2022/06/03 08:34:04;;;;;;;;;;;21.00;91.60;;;;;;4946562;28;20016;-70
2022/06/03 08:36:31;;;;;;;;;;;21.00;91.70;;;;;;4978532;28;20272;-70
2022/06/03 08:39:01;;;;;;;;;;;21.10;91.50;;;;;;4968258;28;19930;-71
2022/06/03 08:41:45;;;;;;;;;;;21.30;93.90;;;;;;4952534;28;19926;-70
2022/06/03 08:44:20;;;;;;;;;;;21.40;93.10;;;;;;4970228;28;19982;-70
2022/06/03 08:46:45;;;;;;;;;;;21.30;90.20;;;;;;4985833;28;19922;-70
2022/06/03 08:49:17;;;;;;;;;;;21.30;91.90;;;;;;4966660;28;19922;-70
2022/06/03 08:51:46;;;;;;;;;;;21.30;92.20;;;;;;4953293;28;19922;-70
2022/06/03 08:54:21;;;;;;;;;;;21.40;90.70;;;;;;4968368;28;19941;-70
2022/06/03 08:56:48;;;;;;;;;;;21.60;93.20;;;;;;4967435;28;19961;-70
2022/06/03 08:59:21;;;;;;;;;;;21.90;91.30;;;;;;4965356;28;19938;-70
2022/06/03 09:01:51;;;;;;;;;;;22.00;90.20;;;;;;4964987;28;19930;-69
2022/06/03 09:04:22;;;;;;;;;;;22.10;90.50;;;;;;4983166;28;19926;-70
2022/06/03 09:06:51;;;;;;;;;;;22.20;89.40;;;;;;4969369;28;19965;-70
2022/06/03 09:09:23;;;;;;;;;;;22.40;92.50;;;;;;4969246;28;19972;-71
2022/06/03 09:11:51;;;;;;;;;;;22.70;91.80;;;;;;4956548;28;19933;-70
2022/06/03 09:14:19;;;;;;;;;;;23.00;91.60;;;;;;4962100;28;20014;-71
2022/06/03 09:16:46;;;;;;;;;;;23.20;88.00;;;;;;4979979;28;19961;-70
2022/06/03 09:19:17;;;;;;;;;;;23.20;85.90;;;;;;4965108;28;19929;-70
2022/06/03 09:21:44;;;;;;;;;;;23.20;84.60;;;;;;4964361;28;19925;-71
2022/06/03 09:24:15;;;;;;;;;;;23.10;84.20;;;;;;4966433;28;19930;-70
2022/06/03 09:26:52;;;;;;;;;;;22.80;80.60;;;;;;4965009;28;20029;-70
2022/06/03 09:29:19;;;;;;;;;;;22.60;80.50;;;;;;4978228;28;19930;-70
2022/06/03 09:31:47;;;;;;;;;;;22.40;80.60;;;;;;4965672;28;20358;-71
2022/06/03 09:34:13;;;;;;;;;;;22.50;84.40;;;;;;4979884;28;20326;-71
2022/06/03 09:36:39;;;;;;;;;;;22.70;85.60;;;;;;4963954;28;20284;-71
2022/06/03 09:39:12;;;;;;;;;;;22.80;83.60;;;;;;4963914;28;19973;-70
2022/06/03 09:41:39;;;;;;;;;;;23.00;85.80;;;;;;4963834;28;20284;-72
2022/06/03 09:44:05;;;;;;;;;;;23.10;84.60;;;;;;4964237;28;19940;-71
2022/06/03 09:46:35;;;;;;;;;;;23.20;82.10;;;;;;4963582;28;19930;-71
2022/06/03 09:49:02;;;;;;;;;;;23.30;82.10;;;;;;4980146;28;20395;-70
2022/06/03 09:54:34;;;;;;;;;;;23.30;80.50;;;;;;4964766;28;19926;-70
2022/06/03 09:57:05;;;;;;;;;;;23.20;79.70;;;;;;4962934;28;19977;-71
2022/06/03 09:59:33;;;;;;;;;;;23.00;78.90;;;;;;4980177;28;20450;-72
2022/06/03 10:01:58;;;;;;;;;;;22.90;78.70;;;;;;4980830;28;19937;-71
2022/06/03 10:04:24;;;;;;;;;;;22.80;78.60;;;;;;4946100;28;19927;-71
2022/06/03 10:06:50;;;;;;;;;;;22.70;79.60;;;;;;4964295;28;19976;-70
2022/06/03 10:15:37;;;;;;;;;;;22.70;79.40;;;;;;4963605;28;19930;-71
2022/06/03 10:17:30;;;;;;;;;;;22.70;78.90;;;;;;4964979;28;20310;-70
2022/06/03 10:19:56;;;;;;;;;;;22.70;79.30;;;;;;4962621;28;19926;-70
2022/06/03 10:22:21;;;;;;;;;;;22.80;77.60;;;;;;4963512;28;19922;-71
2022/06/03 10:24:48;;;;;;;;;;;22.90;78.10;;;;;;4966410;28;19926;-72
2022/06/03 10:27:18;;;;;;;;;;;22.90;77.70;;;;;;4966668;28;19922;-71
2022/06/03 10:29:51;;;;;;;;;;;22.80;77.10;;;;;;5002256;28;19933;-71
2022/06/03 10:32:19;;;;;;;;;;;22.90;79.10;;;;;;4970157;28;20216;-70
2022/06/03 10:34:45;;;;;;;;;;;23.10;79.40;;;;;;4985399;28;19926;-71
2022/06/03 10:37:24;;;;;;;;;;;23.40;80.50;;;;;;4952915;28;20632;-71
2022/06/03 10:39:53;;;;;;;;;;;23.50;77.60;;;;;;4953463;28;19933;-71
2022/06/03 10:42:19;;;;;;;;;;;23.60;77.20;;;;;;4983219;28;20358;-71
2022/06/03 10:44:46;;;;;;;;;;;23.50;76.00;;;;;;4970938;28;19926;-71
2022/06/03 10:47:16;;;;;;;;;;;23.40;77.20;;;;;;4954953;28;20298;-72
2022/06/03 10:49:54;;;;;;;;;;;23.50;77.00;;;;;;4970601;28;21741;-71
2022/06/03 11:03:29;;;;;;;;;;;23.30;74.10;;;;;;4970612;28;19930;-71
2022/06/03 11:05:56;;;;;;;;;;;23.20;74.90;;;;;;4959932;28;20078;-71
2022/06/03 11:08:21;;;;;;;;;;;23.00;75.30;;;;;;4958175;28;19936;-71
2022/06/03 11:10:50;;;;;;;;;;;22.70;74.40;;;;;;4962594;28;19929;-70
2022/06/03 11:13:32;;;;;;;;;;;22.50;74.80;;;;;;4965891;28;19928;-70
2022/06/03 11:16:30;;;;;;;;;;;22.60;75.20;;;;;;4953153;28;19930;-70
2022/06/03 11:18:57;;;;;;;;;;;22.80;75.10;;;;;;4954185;28;19929;-71
2022/06/03 11:21:28;;;;;;;;;;;22.60;76.70;;;;;;4969219;28;19926;-70
2022/06/03 11:23:55;;;;;;;;;;;22.70;77.10;;;;;;4967490;28;19926;-70
2022/06/03 11:26:24;;;;;;;;;;;23.00;79.10;;;;;;4962385;28;19930;-70
2022/06/03 11:28:53;;;;;;;;;;;23.20;78.60;;;;;;4966148;28;19926;-70
2022/06/03 11:31:29;;;;;;;;;;;23.50;75.60;;;;;;4964187;28;19926;-70
2022/06/03 11:34:01;;;;;;;;;;;23.50;75.90;;;;;;4945830;28;20375;-71
2022/06/03 11:36:29;;;;;;;;;;;23.60;74.00;;;;;;4979762;28;19926;-70
2022/06/03 11:38:57;;;;;;;;;;;23.60;75.10;;;;;;4966269;28;20185;-70
2022/06/03 11:41:25;;;;;;;;;;;23.60;74.70;;;;;;4967290;28;20329;-70
2022/06/03 11:43:54;;;;;;;;;;;23.70;74.80;;;;;;4949013;28;20388;-72
2022/06/03 11:46:27;;;;;;;;;;;23.80;76.20;;;;;;4963910;28;20303;-69
2022/06/03 11:48:54;;;;;;;;;;;23.90;74.00;;;;;;4962190;28;20304;-70
2022/06/03 11:51:20;;;;;;;;;;;23.80;74.00;;;;;;4967430;28;20288;-68
2022/06/03 11:53:47;;;;;;;;;;;23.40;73.60;;;;;;4961894;28;19929;-67
2022/06/03 11:56:15;;;;;;;;;;;23.20;72.20;;;;;;4966954;28;19926;-69
2022/06/03 11:58:41;;;;;;;;;;;23.10;73.60;;;;;;4964431;28;20472;-69
2022/06/03 12:01:11;;;;;;;;;;;23.10;73.00;;;;;;4980675;28;19926;-67
2022/06/03 12:03:40;;;;;;;;;;;23.10;72.30;;;;;;4964969;28;19926;-68
2022/06/03 12:06:11;;;;;;;;;;;23.20;74.20;;;;;;4963437;28;20431;-69
2022/06/03 12:08:49;;;;;;;;;;;23.30;73.60;;;;;;4964907;28;20307;-68
2022/06/03 12:14:23;;;;;;;;;;;23.60;74.00;;;;;;4964567;28;19929;-69
2022/06/03 12:16:54;;;;;;;;;;;23.50;72.60;;;;;;4963588;28;20009;-68
2022/06/03 12:19:49;;;;;;;;;;;23.60;74.00;;;;;;4963249;28;19941;-68
2022/06/03 12:22:17;;;;;;;;;;;23.50;74.50;;;;;;4944085;28;20278;-68
2022/06/03 12:24:44;;;;;;;;;;;23.30;75.50;;;;;;4962888;28;20041;-68
2022/06/03 12:27:13;;;;;;;;;;;23.10;74.10;;;;;;4965887;28;19926;-68
2022/06/03 12:29:42;;;;;;;;;;;23.00;72.90;;;;;;4969028;28;19922;-68
2022/06/03 12:32:13;;;;;;;;;;;22.80;74.40;;;;;;4966099;28;19937;-68
2022/06/03 12:34:38;;;;;;;;;;;22.70;75.10;;;;;;4967393;28;19932;-69
2022/06/03 12:37:23;;;;;;;;;;;22.50;76.80;;;;;;4965967;28;19926;-69
2022/06/03 12:39:54;;;;;;;;;;;22.50;76.40;;;;;;4969975;28;19941;-68
2022/06/03 12:42:26;;;;;;;;;;;22.60;74.80;;;;;;4965460;28;19957;-68
2022/06/03 12:45:02;;;;;;;;;;;22.80;75.50;;;;;;4982811;28;19926;-68
2022/06/03 12:47:41;;;;;;;;;;;22.70;73.60;;;;;;4946078;28;20280;-68
2022/06/03 12:50:06;;;;;;;;;;;22.50;74.90;;;;;;4979514;28;19933;-68
2022/06/03 12:52:33;;;;;;;;;;;22.50;77.20;;;;;;4965962;28;19926;-70
2022/06/03 12:55:08;;;;;;;;;;;22.50;76.30;;;;;;4974841;28;19972;-69
2022/06/03 12:57:48;;;;;;;;;;;22.60;77.30;;;;;;4970916;28;20271;-68
2022/06/03 13:00:19;;;;;;;;;;;22.70;77.10;;;;;;4960242;28;19926;-68
2022/06/03 13:02:56;;;;;;;;;;;22.70;78.90;;;;;;4964308;28;19926;-68
2022/06/03 13:05:25;;;;;;;;;;;22.70;79.20;;;;;;4963830;28;19926;-68
2022/06/03 13:07:56;;;;;;;;;;;22.60;80.40;;;;;;4963609;28;20417;-68
2022/06/03 13:10:24;;;;;;;;;;;22.40;80.10;;;;;;4964030;28;19933;-67
2022/06/03 13:12:51;;;;;;;;;;;22.00;80.50;;;;;;4946465;28;19926;-68
2022/06/03 13:15:16;;;;;;;;;;;21.70;81.80;;;;;;4964529;28;19926;-68
2022/06/03 13:17:54;;;;;;;;;;;21.70;84.40;;;;;;4964483;28;19946;-68
2022/06/03 13:20:38;;;;;;;;;;;21.90;84.50;;;;;;4962196;28;19930;-67
2022/06/03 13:23:19;;;;;;;;;;;21.90;84.80;;;;;;4992519;28;19972;-67
2022/06/03 13:25:46;;;;;;;;;;;21.90;84.30;;;;;;4963142;28;19930;-68
2022/06/03 13:28:33;;;;;;;;;;;22.00;85.50;;;;;;4943363;28;20299;-68
2022/06/03 13:31:08;;;;;;;;;;;21.90;85.30;;;;;;4959198;28;19926;-68
2022/06/03 13:33:53;;;;;;;;;;;22.10;87.20;;;;;;4962103;28;19981;-68
2022/06/03 13:36:30;;;;;;;;;;;22.10;84.30;;;;;;4944688;28;19969;-67
2022/06/03 13:38:56;;;;;;;;;;;22.00;84.10;;;;;;4964522;28;19930;-68
2022/06/03 13:44:11;;;;;;;;;;;21.60;84.70;;;;;;4962400;28;20372;-69
2022/06/03 13:46:37;;;;;;;;;;;21.40;82.70;;;;;;4961217;28;19930;-69
2022/06/03 13:49:22;;;;;;;;;;;21.30;86.40;;;;;;4978160;28;19929;-68
2022/06/03 13:51:47;;;;;;;;;;;21.30;85.90;;;;;;4963300;28;20034;-67
2022/06/03 13:54:16;;;;;;;;;;;21.40;86.20;;;;;;4964391;28;19926;-67
2022/06/03 13:56:51;;;;;;;;;;;21.40;84.50;;;;;;4994914;28;20663;-69
2022/06/03 13:59:17;;;;;;;;;;;21.50;84.20;;;;;;4961847;28;20002;-69
2022/06/03 14:01:44;;;;;;;;;;;21.20;84.40;;;;;;4962041;28;19992;-68
2022/06/03 14:04:15;;;;;;;;;;;21.10;84.00;;;;;;4957065;28;20303;-69
2022/06/03 14:06:45;;;;;;;;;;;21.10;82.90;;;;;;4961732;28;19930;-68
2022/06/03 14:09:23;;;;;;;;;;;21.00;83.80;;;;;;4952983;28;20467;-68
2022/06/03 14:12:07;;;;;;;;;;;20.90;83.40;;;;;;4971894;28;19929;-71
2022/06/03 14:15:08;;;;;;;;;;;20.80;82.00;;;;;;4956631;28;19930;-69
2022/06/03 14:17:46;;;;;;;;;;;20.80;84.30;;;;;;4962369;28;19931;-70
2022/06/03 14:20:16;;;;;;;;;;;20.80;80.00;;;;;;4959853;28;19969;-70
2022/06/03 14:22:57;;;;;;;;;;;20.70;79.90;;;;;;4957252;28;19957;-69
2022/06/03 14:25:29;;;;;;;;;;;20.60;80.20;;;;;;4957011;28;19926;-69
2022/06/03 14:28:01;;;;;;;;;;;20.60;78.80;;;;;;4957096;28;19926;-69
2022/06/03 14:30:27;;;;;;;;;;;20.40;77.10;;;;;;4954112;28;20295;-70
2022/06/03 14:32:53;;;;;;;;;;;20.30;78.10;;;;;;4977313;28;19937;-70
2022/06/03 14:35:21;;;;;;;;;;;20.20;79.20;;;;;;4958461;28;19926;-69
2022/06/03 14:37:49;;;;;;;;;;;20.10;77.60;;;;;;4958587;28;20562;-70
2022/06/03 14:40:30;;;;;;;;;;;19.90;78.80;;;;;;4990746;28;19968;-68
2022/06/03 14:42:57;;;;;;;;;;;20.00;79.30;;;;;;4957298;28;19961;-69
2022/06/03 14:45:25;;;;;;;;;;;20.00;79.90;;;;;;4950383;28;20198;-69
2022/06/03 14:47:54;;;;;;;;;;;20.00;79.20;;;;;;4953753;28;20059;-70
2022/06/03 14:50:19;;;;;;;;;;;20.00;78.00;;;;;;4955826;28;19930;-70
2022/06/03 14:53:01;;;;;;;;;;;20.10;79.10;;;;;;4955038;28;20319;-73
2022/06/03 14:55:30;;;;;;;;;;;20.00;77.50;;;;;;4953379;28;19996;-72
2022/06/03 14:58:01;;;;;;;;;;;20.00;78.90;;;;;;4954528;28;19973;-72
2022/06/03 15:00:46;;;;;;;;;;;20.00;76.20;;;;;;4954507;28;21051;-73
2022/06/03 15:03:17;;;;;;;;;;;19.90;78.30;;;;;;4957452;28;19926;-74
2022/06/03 15:05:50;;;;;;;;;;;19.90;76.80;;;;;;4950557;28;19930;-71
2022/06/03 15:08:19;;;;;;;;;;;19.90;77.60;;;;;;4948932;28;19937;-71
2022/06/03 15:10:49;;;;;;;;;;;19.80;74.20;;;;;;4939188;28;20401;-72
2022/06/03 15:13:22;;;;;;;;;;;19.70;73.80;;;;;;4953632;28;19929;-73
2022/06/03 15:15:48;;;;;;;;;;;19.50;74.70;;;;;;4958634;28;19953;-72
2022/06/03 15:18:16;;;;;;;;;;;19.40;77.90;;;;;;4958230;28;19981;-72
2022/06/03 15:20:53;;;;;;;;;;;19.40;77.30;;;;;;4980987;28;19926;-73
2022/06/03 15:23:19;;;;;;;;;;;19.30;79.30;;;;;;4960353;28;19980;-73
2022/06/03 15:25:48;;;;;;;;;;;19.20;80.80;;;;;;4965482;28;20032;-73
2022/06/03 15:28:15;;;;;;;;;;;19.30;82.00;;;;;;4979192;28;19926;-70
2022/06/03 15:30:41;;;;;;;;;;;19.30;80.30;;;;;;4963551;28;20000;-74
2022/06/03 15:33:15;;;;;;;;;;;19.30;79.60;;;;;;4943042;28;19950;-75
2022/06/03 15:35:41;;;;;;;;;;;19.20;79.50;;;;;;4966216;28;20045;-73